sensor_id;sensor_type;location;lat;lon;timestamp;temperature;humidity
36660;DHT22;22654;51.054;3.654;2023-06-14T00:01:37;19.20;99.90
36660;DHT22;22654;51.054;3.654;2023-06-14T00:04:04;19.30;99.90
36660;DHT22;22654;51.054;3.654;2023-06-14T00:06:34;19.20;99.90
36660;DHT22;22654;51.054;3.654;2023-06-14T00:09:00;19.20;99.90
36660;DHT22;22654;51.054;3.654;2023-06-14T00:11:26;19.00;99.90
36660;DHT22;22654;51.054;3.654;2023-06-14T00:13:52;19.10;99.90
36660;DHT22;22654;51.054;3.654;2023-06-14T00:16:18;19.00;99.90
36660;DHT22;22654;51.054;3.654;2023-06-14T00:18:45;19.10;99.90
36660;DHT22;22654;51.054;3.654;2023-06-14T00:21:11;19.00;99.90
36660;DHT22;22654;51.054;3.654;2023-06-14T00:23:37;19.00;99.90
36660;DHT22;22654;51.054;3.654;2023-06-14T00:26:03;18.70;99.90
36660;DHT22;22654;51.054;3.654;2023-06-14T00:28:29;18.60;99.90
36660;DHT22;22654;51.054;3.654;2023-06-14T00:30:55;18.40;99.90
36660;DHT22;22654;51.054;3.654;2023-06-14T00:33:21;18.20;99.90
36660;DHT22;22654;51.054;3.654;2023-06-14T00:35:50;18.10;99.90
36660;DHT22;22654;51.054;3.654;2023-06-14T00:38:15;18.00;99.90
36660;DHT22;22654;51.054;3.654;2023-06-14T00:40:41;17.90;99.90
36660;DHT22;22654;51.054;3.654;2023-06-14T00:43:07;17.70;99.90
36660;DHT22;22654;51.054;3.654;2023-06-14T00:45:33;17.60;99.90
36660;DHT22;22654;51.054;3.654;2023-06-14T00:48:02;17.70;99.90
36660;DHT22;22654;51.054;3.654;2023-06-14T00:50:28;18.30;99.90
36660;DHT22;22654;51.054;3.654;2023-06-14T00:52:56;18.70;99.90
36660;DHT22;22654;51.054;3.654;2023-06-14T00:55:22;18.80;99.90
36660;DHT22;22654;51.054;3.654;2023-06-14T00:57:48;18.50;99.90
36660;DHT22;22654;51.054;3.654;2023-06-14T01:00:15;18.30;99.90
36660;DHT22;22654;51.054;3.654;2023-06-14T01:02:41;18.30;99.90
36660;DHT22;22654;51.054;3.654;2023-06-14T01:05:09;18.30;99.90
36660;DHT22;22654;51.054;3.654;2023-06-14T01:15:21;17.50;99.90
36660;DHT22;22654;51.054;3.654;2023-06-14T01:17:50;17.30;99.90
36660;DHT22;22654;51.054;3.654;2023-06-14T01:20:19;17.30;99.90
36660;DHT22;22654;51.054;3.654;2023-06-14T01:22:53;17.40;99.90
36660;DHT22;22654;51.054;3.654;2023-06-14T01:25:20;17.30;99.90
36660;DHT22;22654;51.054;3.654;2023-06-14T01:27:52;17.20;99.90
36660;DHT22;22654;51.054;3.654;2023-06-14T01:30:20;17.20;99.90
36660;DHT22;22654;51.054;3.654;2023-06-14T01:32:47;17.20;99.90
36660;DHT22;22654;51.054;3.654;2023-06-14T01:35:14;17.20;99.90
36660;DHT22;22654;51.054;3.654;2023-06-14T01:37:40;17.10;99.90
36660;DHT22;22654;51.054;3.654;2023-06-14T01:40:08;17.30;99.90
36660;DHT22;22654;51.054;3.654;2023-06-14T01:42:38;17.20;99.90
36660;DHT22;22654;51.054;3.654;2023-06-14T01:45:08;17.00;99.90
36660;DHT22;22654;51.054;3.654;2023-06-14T01:47:34;16.90;99.90
36660;DHT22;22654;51.054;3.654;2023-06-14T01:50:04;16.90;99.90
36660;DHT22;22654;51.054;3.654;2023-06-14T01:52:30;16.90;99.90
36660;DHT22;22654;51.054;3.654;2023-06-14T01:54:56;16.80;99.90
36660;DHT22;22654;51.054;3.654;2023-06-14T01:57:25;16.70;99.90
36660;DHT22;22654;51.054;3.654;2023-06-14T01:59:55;16.80;99.90
36660;DHT22;22654;51.054;3.654;2023-06-14T02:02:21;16.80;99.90
36660;DHT22;22654;51.054;3.654;2023-06-14T02:04:47;17.10;99.90
36660;DHT22;22654;51.054;3.654;2023-06-14T02:07:13;17.10;99.90
36660;DHT22;22654;51.054;3.654;2023-06-14T02:09:41;16.90;99.90
36660;DHT22;22654;51.054;3.654;2023-06-14T02:12:07;16.80;99.90
36660;DHT22;22654;51.054;3.654;2023-06-14T02:14:33;16.70;99.90
36660;DHT22;22654;51.054;3.654;2023-06-14T02:17:00;16.70;99.90
36660;DHT22;22654;51.054;3.654;2023-06-14T02:19:26;16.70;99.90
36660;DHT22;22654;51.054;3.654;2023-06-14T02:21:52;16.60;99.90
36660;DHT22;22654;51.054;3.654;2023-06-14T02:24:18;16.60;99.90
36660;DHT22;22654;51.054;3.654;2023-06-14T02:26:44;16.60;99.90
36660;DHT22;22654;51.054;3.654;2023-06-14T02:29:14;16.50;99.90
36660;DHT22;22654;51.054;3.654;2023-06-14T02:31:40;16.40;99.90
36660;DHT22;22654;51.054;3.654;2023-06-14T02:34:06;16.40;99.90
36660;DHT22;22654;51.054;3.654;2023-06-14T02:36:35;16.40;99.90
36660;DHT22;22654;51.054;3.654;2023-06-14T02:39:10;16.40;99.90
36660;DHT22;22654;51.054;3.654;2023-06-14T02:41:36;16.40;99.90
36660;DHT22;22654;51.054;3.654;2023-06-14T02:44:02;16.40;99.90
36660;DHT22;22654;51.054;3.654;2023-06-14T02:46:28;16.40;99.90
36660;DHT22;22654;51.054;3.654;2023-06-14T02:48:54;16.50;99.90
36660;DHT22;22654;51.054;3.654;2023-06-14T02:51:20;16.40;99.90
36660;DHT22;22654;51.054;3.654;2023-06-14T02:53:45;16.50;99.90
36660;DHT22;22654;51.054;3.654;2023-06-14T02:56:11;16.30;99.90
36660;DHT22;22654;51.054;3.654;2023-06-14T02:58:38;16.20;99.90
36660;DHT22;22654;51.054;3.654;2023-06-14T03:01:05;16.20;99.90
36660;DHT22;22654;51.054;3.654;2023-06-14T03:03:34;16.10;99.90
36660;DHT22;22654;51.054;3.654;2023-06-14T03:06:00;16.10;99.90
36660;DHT22;22654;51.054;3.654;2023-06-14T03:08:30;16.00;99.90
36660;DHT22;22654;51.054;3.654;2023-06-14T03:11:00;16.00;99.90
36660;DHT22;22654;51.054;3.654;2023-06-14T03:13:28;16.00;99.90
36660;DHT22;22654;51.054;3.654;2023-06-14T03:15:58;16.00;99.90
36660;DHT22;22654;51.054;3.654;2023-06-14T03:18:26;16.10;99.90
36660;DHT22;22654;51.054;3.654;2023-06-14T03:20:52;16.20;99.90
36660;DHT22;22654;51.054;3.654;2023-06-14T03:23:19;16.20;99.90
36660;DHT22;22654;51.054;3.654;2023-06-14T03:25:47;16.50;99.90
36660;DHT22;22654;51.054;3.654;2023-06-14T03:28:13;16.80;99.90
36660;DHT22;22654;51.054;3.654;2023-06-14T03:30:39;16.80;99.90
36660;DHT22;22654;51.054;3.654;2023-06-14T03:33:05;16.70;99.90
36660;DHT22;22654;51.054;3.654;2023-06-14T03:35:36;16.60;99.90
36660;DHT22;22654;51.054;3.654;2023-06-14T03:38:02;16.90;99.90
36660;DHT22;22654;51.054;3.654;2023-06-14T03:40:29;17.20;99.90
36660;DHT22;22654;51.054;3.654;2023-06-14T03:43:00;17.40;99.90
36660;DHT22;22654;51.054;3.654;2023-06-14T03:45:27;17.50;99.90
36660;DHT22;22654;51.054;3.654;2023-06-14T03:47:53;17.70;99.90
36660;DHT22;22654;51.054;3.654;2023-06-14T03:50:20;17.80;99.90
36660;DHT22;22654;51.054;3.654;2023-06-14T03:52:48;17.90;99.90
36660;DHT22;22654;51.054;3.654;2023-06-14T03:55:15;18.00;99.90
36660;DHT22;22654;51.054;3.654;2023-06-14T03:57:42;18.10;99.90
36660;DHT22;22654;51.054;3.654;2023-06-14T04:00:11;17.90;99.90
36660;DHT22;22654;51.054;3.654;2023-06-14T04:02:40;17.80;99.90
36660;DHT22;22654;51.054;3.654;2023-06-14T04:05:08;17.70;99.90
36660;DHT22;22654;51.054;3.654;2023-06-14T04:07:43;17.70;99.90
36660;DHT22;22654;51.054;3.654;2023-06-14T04:10:12;17.90;99.90
36660;DHT22;22654;51.054;3.654;2023-06-14T04:12:39;18.10;99.90
36660;DHT22;22654;51.054;3.654;2023-06-14T04:15:05;18.10;99.90
36660;DHT22;22654;51.054;3.654;2023-06-14T04:17:32;18.20;99.90
36660;DHT22;22654;51.054;3.654;2023-06-14T04:20:03;18.50;99.90
36660;DHT22;22654;51.054;3.654;2023-06-14T04:22:32;18.60;99.90
36660;DHT22;22654;51.054;3.654;2023-06-14T04:24:59;18.60;99.90
36660;DHT22;22654;51.054;3.654;2023-06-14T04:27:27;18.70;99.90
36660;DHT22;22654;51.054;3.654;2023-06-14T04:29:54;18.80;99.90
36660;DHT22;22654;51.054;3.654;2023-06-14T04:32:32;18.70;99.90
36660;DHT22;22654;51.054;3.654;2023-06-14T04:35:07;18.70;99.90
36660;DHT22;22654;51.054;3.654;2023-06-14T04:37:34;19.20;99.90
36660;DHT22;22654;51.054;3.654;2023-06-14T04:40:01;19.30;99.90
36660;DHT22;22654;51.054;3.654;2023-06-14T04:42:27;19.30;99.90
36660;DHT22;22654;51.054;3.654;2023-06-14T04:44:58;19.10;99.90
36660;DHT22;22654;51.054;3.654;2023-06-14T04:47:24;19.20;99.90
36660;DHT22;22654;51.054;3.654;2023-06-14T04:49:57;19.40;99.90
36660;DHT22;22654;51.054;3.654;2023-06-14T04:52:23;19.50;99.90
36660;DHT22;22654;51.054;3.654;2023-06-14T04:54:53;19.60;99.90
36660;DHT22;22654;51.054;3.654;2023-06-14T04:57:21;19.60;99.90
36660;DHT22;22654;51.054;3.654;2023-06-14T04:59:49;19.60;99.90
36660;DHT22;22654;51.054;3.654;2023-06-14T05:02:21;19.50;99.90
36660;DHT22;22654;51.054;3.654;2023-06-14T05:04:47;19.50;99.90
36660;DHT22;22654;51.054;3.654;2023-06-14T05:07:13;19.60;99.90
36660;DHT22;22654;51.054;3.654;2023-06-14T05:09:41;19.70;99.90
36660;DHT22;22654;51.054;3.654;2023-06-14T05:12:07;19.90;99.90
36660;DHT22;22654;51.054;3.654;2023-06-14T05:14:34;19.90;99.90
36660;DHT22;22654;51.054;3.654;2023-06-14T05:17:00;20.00;99.90
36660;DHT22;22654;51.054;3.654;2023-06-14T05:19:26;20.10;99.90
36660;DHT22;22654;51.054;3.654;2023-06-14T05:21:53;20.10;99.90
36660;DHT22;22654;51.054;3.654;2023-06-14T05:24:19;20.10;99.90
36660;DHT22;22654;51.054;3.654;2023-06-14T05:26:46;20.20;99.90
36660;DHT22;22654;51.054;3.654;2023-06-14T05:29:13;20.30;99.90
36660;DHT22;22654;51.054;3.654;2023-06-14T05:31:39;20.40;99.90
36660;DHT22;22654;51.054;3.654;2023-06-14T05:34:05;20.50;99.90
36660;DHT22;22654;51.054;3.654;2023-06-14T05:36:31;20.60;99.80
36660;DHT22;22654;51.054;3.654;2023-06-14T05:38:57;20.90;98.90
36660;DHT22;22654;51.054;3.654;2023-06-14T05:41:28;21.60;98.00
36660;DHT22;22654;51.054;3.654;2023-06-14T05:43:55;23.00;95.70
36660;DHT22;22654;51.054;3.654;2023-06-14T05:46:21;23.90;94.40
36660;DHT22;22654;51.054;3.654;2023-06-14T05:48:52;23.60;94.50
36660;DHT22;22654;51.054;3.654;2023-06-14T05:51:18;23.20;94.60
36660;DHT22;22654;51.054;3.654;2023-06-14T05:53:50;22.50;95.30
36660;DHT22;22654;51.054;3.654;2023-06-14T05:56:17;22.50;95.30
36660;DHT22;22654;51.054;3.654;2023-06-14T05:58:46;22.50;95.10
36660;DHT22;22654;51.054;3.654;2023-06-14T06:01:12;22.90;95.20
36660;DHT22;22654;51.054;3.654;2023-06-14T06:03:39;22.70;95.20
36660;DHT22;22654;51.054;3.654;2023-06-14T06:06:05;22.40;95.70
36660;DHT22;22654;51.054;3.654;2023-06-14T06:08:31;22.30;95.70
36660;DHT22;22654;51.054;3.654;2023-06-14T06:10:58;22.60;95.10
36660;DHT22;22654;51.054;3.654;2023-06-14T06:13:24;22.80;94.90
36660;DHT22;22654;51.054;3.654;2023-06-14T06:15:49;22.80;94.90
36660;DHT22;22654;51.054;3.654;2023-06-14T06:18:16;22.70;94.80
36660;DHT22;22654;51.054;3.654;2023-06-14T06:20:41;22.20;95.20
36660;DHT22;22654;51.054;3.654;2023-06-14T06:23:07;21.80;95.50
36660;DHT22;22654;51.054;3.654;2023-06-14T06:25:35;21.70;96.00
36660;DHT22;22654;51.054;3.654;2023-06-14T06:28:01;21.90;96.10
36660;DHT22;22654;51.054;3.654;2023-06-14T06:30:27;22.10;95.60
36660;DHT22;22654;51.054;3.654;2023-06-14T06:32:52;22.30;95.50
36660;DHT22;22654;51.054;3.654;2023-06-14T06:35:18;22.60;94.90
36660;DHT22;22654;51.054;3.654;2023-06-14T06:37:44;22.90;94.80
36660;DHT22;22654;51.054;3.654;2023-06-14T06:40:10;23.00;94.40
36660;DHT22;22654;51.054;3.654;2023-06-14T06:42:36;23.20;94.30
36660;DHT22;22654;51.054;3.654;2023-06-14T06:45:04;23.70;94.50
36660;DHT22;22654;51.054;3.654;2023-06-14T06:47:30;24.30;93.60
36660;DHT22;22654;51.054;3.654;2023-06-14T06:49:56;25.10;93.00
36660;DHT22;22654;51.054;3.654;2023-06-14T06:52:22;25.70;91.80
36660;DHT22;22654;51.054;3.654;2023-06-14T06:54:48;26.10;91.30
36660;DHT22;22654;51.054;3.654;2023-06-14T06:57:16;26.60;90.90
36660;DHT22;22654;51.054;3.654;2023-06-14T06:59:42;28.20;90.30
36660;DHT22;22654;51.054;3.654;2023-06-14T07:02:08;29.10;86.90
36660;DHT22;22654;51.054;3.654;2023-06-14T07:04:33;28.80;86.40
36660;DHT22;22654;51.054;3.654;2023-06-14T07:06:59;28.70;86.00
36660;DHT22;22654;51.054;3.654;2023-06-14T07:09:26;29.30;85.60
36660;DHT22;22654;51.054;3.654;2023-06-14T07:11:54;30.20;84.20
36660;DHT22;22654;51.054;3.654;2023-06-14T07:14:20;30.00;82.10
36660;DHT22;22654;51.054;3.654;2023-06-14T07:16:48;30.20;82.90
36660;DHT22;22654;51.054;3.654;2023-06-14T07:19:14;31.20;81.00
36660;DHT22;22654;51.054;3.654;2023-06-14T07:21:41;31.90;78.80
36660;DHT22;22654;51.054;3.654;2023-06-14T07:24:07;31.30;78.60
36660;DHT22;22654;51.054;3.654;2023-06-14T07:26:34;30.90;78.90
36660;DHT22;22654;51.054;3.654;2023-06-14T07:29:01;30.80;78.20
36660;DHT22;22654;51.054;3.654;2023-06-14T07:31:26;30.40;78.70
36660;DHT22;22654;51.054;3.654;2023-06-14T07:33:53;30.90;78.70
36660;DHT22;22654;51.054;3.654;2023-06-14T07:36:19;31.80;77.30
36660;DHT22;22654;51.054;3.654;2023-06-14T07:38:46;31.50;76.30
36660;DHT22;22654;51.054;3.654;2023-06-14T07:41:12;30.80;76.80
36660;DHT22;22654;51.054;3.654;2023-06-14T07:43:37;30.70;77.20
36660;DHT22;22654;51.054;3.654;2023-06-14T07:46:05;31.20;76.50
36660;DHT22;22654;51.054;3.654;2023-06-14T07:48:31;31.00;76.60
36660;DHT22;22654;51.054;3.654;2023-06-14T07:50:56;30.50;77.20
36660;DHT22;22654;51.054;3.654;2023-06-14T07:53:22;30.60;77.20
36660;DHT22;22654;51.054;3.654;2023-06-14T07:55:48;31.40;76.10
36660;DHT22;22654;51.054;3.654;2023-06-14T07:58:15;31.10;75.70
36660;DHT22;22654;51.054;3.654;2023-06-14T08:00:40;30.20;75.70
36660;DHT22;22654;51.054;3.654;2023-06-14T08:03:06;29.80;76.30
36660;DHT22;22654;51.054;3.654;2023-06-14T08:05:33;30.40;76.70
36660;DHT22;22654;51.054;3.654;2023-06-14T08:07:59;31.40;76.10
36660;DHT22;22654;51.054;3.654;2023-06-14T08:10:25;31.30;76.10
36660;DHT22;22654;51.054;3.654;2023-06-14T08:12:51;31.30;75.80
36660;DHT22;22654;51.054;3.654;2023-06-14T08:15:18;31.10;76.50
36660;DHT22;22654;51.054;3.654;2023-06-14T08:17:44;30.50;76.30
36660;DHT22;22654;51.054;3.654;2023-06-14T08:20:10;30.70;76.40
36660;DHT22;22654;51.054;3.654;2023-06-14T08:22:37;30.60;75.90
36660;DHT22;22654;51.054;3.654;2023-06-14T08:25:04;30.90;76.10
36660;DHT22;22654;51.054;3.654;2023-06-14T08:27:30;30.80;76.00
36660;DHT22;22654;51.054;3.654;2023-06-14T08:29:56;30.20;75.40
36660;DHT22;22654;51.054;3.654;2023-06-14T08:32:22;30.20;76.00
36660;DHT22;22654;51.054;3.654;2023-06-14T08:34:48;30.20;77.00
36660;DHT22;22654;51.054;3.654;2023-06-14T08:37:14;29.80;76.40
36660;DHT22;22654;51.054;3.654;2023-06-14T08:39:41;29.40;77.60
36660;DHT22;22654;51.054;3.654;2023-06-14T08:42:09;28.70;78.10
36660;DHT22;22654;51.054;3.654;2023-06-14T08:44:35;28.10;78.30
36660;DHT22;22654;51.054;3.654;2023-06-14T08:47:02;28.00;79.00
36660;DHT22;22654;51.054;3.654;2023-06-14T08:49:31;28.00;78.50
36660;DHT22;22654;51.054;3.654;2023-06-14T08:52:01;27.90;78.60
36660;DHT22;22654;51.054;3.654;2023-06-14T08:54:30;27.70;76.60
36660;DHT22;22654;51.054;3.654;2023-06-14T08:57:00;27.70;78.60
36660;DHT22;22654;51.054;3.654;2023-06-14T08:59:26;27.60;77.80
36660;DHT22;22654;51.054;3.654;2023-06-14T09:01:53;27.70;78.00
36660;DHT22;22654;51.054;3.654;2023-06-14T09:04:21;28.10;79.20
36660;DHT22;22654;51.054;3.654;2023-06-14T09:06:47;28.10;77.20
36660;DHT22;22654;51.054;3.654;2023-06-14T09:09:21;28.00;76.90
36660;DHT22;22654;51.054;3.654;2023-06-14T09:11:50;27.90;76.70
36660;DHT22;22654;51.054;3.654;2023-06-14T09:14:17;28.20;76.80
36660;DHT22;22654;51.054;3.654;2023-06-14T09:16:43;28.10;76.40
36660;DHT22;22654;51.054;3.654;2023-06-14T09:19:14;27.80;76.40
36660;DHT22;22654;51.054;3.654;2023-06-14T09:21:48;27.80;76.10
36660;DHT22;22654;51.054;3.654;2023-06-14T09:24:14;27.80;77.50
36660;DHT22;22654;51.054;3.654;2023-06-14T09:26:40;28.00;76.60
36660;DHT22;22654;51.054;3.654;2023-06-14T09:29:06;27.90;75.70
36660;DHT22;22654;51.054;3.654;2023-06-14T09:31:32;28.10;76.30
36660;DHT22;22654;51.054;3.654;2023-06-14T09:33:58;28.00;76.20
36660;DHT22;22654;51.054;3.654;2023-06-14T09:36:27;28.10;76.80
36660;DHT22;22654;51.054;3.654;2023-06-14T09:39:01;28.10;74.70
36660;DHT22;22654;51.054;3.654;2023-06-14T09:41:34;28.00;75.10
36660;DHT22;22654;51.054;3.654;2023-06-14T09:44:02;28.00;74.60
36660;DHT22;22654;51.054;3.654;2023-06-14T09:46:28;28.00;73.80
36660;DHT22;22654;51.054;3.654;2023-06-14T09:48:57;28.00;74.60
36660;DHT22;22654;51.054;3.654;2023-06-14T09:51:24;27.70;74.30
36660;DHT22;22654;51.054;3.654;2023-06-14T09:53:50;27.40;73.30
36660;DHT22;22654;51.054;3.654;2023-06-14T09:56:29;27.40;75.10
36660;DHT22;22654;51.054;3.654;2023-06-14T09:58:59;27.60;74.40
36660;DHT22;22654;51.054;3.654;2023-06-14T10:01:26;27.90;74.50
36660;DHT22;22654;51.054;3.654;2023-06-14T10:04:01;28.00;73.90
36660;DHT22;22654;51.054;3.654;2023-06-14T10:06:29;27.90;74.00
36660;DHT22;22654;51.054;3.654;2023-06-14T10:08:57;28.10;74.40
36660;DHT22;22654;51.054;3.654;2023-06-14T10:11:26;27.80;72.30
36660;DHT22;22654;51.054;3.654;2023-06-14T10:13:52;27.60;73.10
36660;DHT22;22654;51.054;3.654;2023-06-14T10:16:39;27.60;73.20
36660;DHT22;22654;51.054;3.654;2023-06-14T10:21:45;27.90;73.50
36660;DHT22;22654;51.054;3.654;2023-06-14T10:24:17;28.10;74.70
36660;DHT22;22654;51.054;3.654;2023-06-14T10:26:54;28.20;74.70
36660;DHT22;22654;51.054;3.654;2023-06-14T10:29:22;27.90;74.40
36660;DHT22;22654;51.054;3.654;2023-06-14T10:31:49;27.90;74.30
36660;DHT22;22654;51.054;3.654;2023-06-14T10:34:23;28.20;74.90
36660;DHT22;22654;51.054;3.654;2023-06-14T10:37:01;28.60;74.50
36660;DHT22;22654;51.054;3.654;2023-06-14T10:39:29;28.20;75.30
36660;DHT22;22654;51.054;3.654;2023-06-14T10:41:56;27.90;76.20
36660;DHT22;22654;51.054;3.654;2023-06-14T10:46:55;27.60;75.40
36660;DHT22;22654;51.054;3.654;2023-06-14T10:49:45;27.70;75.20
36660;DHT22;22654;51.054;3.654;2023-06-14T10:52:13;28.20;74.40
36660;DHT22;22654;51.054;3.654;2023-06-14T10:55:02;28.70;74.90
36660;DHT22;22654;51.054;3.654;2023-06-14T10:57:30;29.00;74.60
36660;DHT22;22654;51.054;3.654;2023-06-14T11:00:00;28.90;74.60
36660;DHT22;22654;51.054;3.654;2023-06-14T11:05:29;28.80;73.20
36660;DHT22;22654;51.054;3.654;2023-06-14T11:10:41;28.90;73.00
36660;DHT22;22654;51.054;3.654;2023-06-14T11:13:07;28.80;72.90
36660;DHT22;22654;51.054;3.654;2023-06-14T11:15:35;28.50;73.50
36660;DHT22;22654;51.054;3.654;2023-06-14T11:18:02;28.40;73.40
36660;DHT22;22654;51.054;3.654;2023-06-14T11:20:32;28.80;73.80
36660;DHT22;22654;51.054;3.654;2023-06-14T11:22:59;28.90;72.00
36660;DHT22;22654;51.054;3.654;2023-06-14T11:25:25;29.00;72.10
36660;DHT22;22654;51.054;3.654;2023-06-14T11:27:55;28.90;72.50
36660;DHT22;22654;51.054;3.654;2023-06-14T11:30:22;28.60;71.70
36660;DHT22;22654;51.054;3.654;2023-06-14T11:32:54;28.80;71.70
36660;DHT22;22654;51.054;3.654;2023-06-14T11:35:24;28.90;71.70
36660;DHT22;22654;51.054;3.654;2023-06-14T11:37:56;29.10;71.50
36660;DHT22;22654;51.054;3.654;2023-06-14T11:40:26;29.10;70.70
36660;DHT22;22654;51.054;3.654;2023-06-14T11:43:00;28.50;71.60
36660;DHT22;22654;51.054;3.654;2023-06-14T11:45:27;28.80;71.10
36660;DHT22;22654;51.054;3.654;2023-06-14T11:47:55;29.20;71.90
36660;DHT22;22654;51.054;3.654;2023-06-14T11:50:24;29.60;69.90
36660;DHT22;22654;51.054;3.654;2023-06-14T11:52:58;29.70;70.00
36660;DHT22;22654;51.054;3.654;2023-06-14T11:55:38;29.20;70.30
36660;DHT22;22654;51.054;3.654;2023-06-14T11:58:06;29.10;70.00
36660;DHT22;22654;51.054;3.654;2023-06-14T12:00:32;29.20;69.80
36660;DHT22;22654;51.054;3.654;2023-06-14T12:02:58;29.40;69.00
36660;DHT22;22654;51.054;3.654;2023-06-14T12:05:25;29.40;69.50
36660;DHT22;22654;51.054;3.654;2023-06-14T12:08:02;29.60;67.80
36660;DHT22;22654;51.054;3.654;2023-06-14T12:10:28;29.80;68.80
36660;DHT22;22654;51.054;3.654;2023-06-14T12:12:58;29.80;68.90
36660;DHT22;22654;51.054;3.654;2023-06-14T12:15:27;29.90;68.70
36660;DHT22;22654;51.054;3.654;2023-06-14T12:17:54;30.10;69.30
36660;DHT22;22654;51.054;3.654;2023-06-14T12:20:20;29.60;67.40
36660;DHT22;22654;51.054;3.654;2023-06-14T12:22:54;29.60;66.90
36660;DHT22;22654;51.054;3.654;2023-06-14T12:25:32;29.90;67.20
36660;DHT22;22654;51.054;3.654;2023-06-14T12:28:04;30.20;65.10
36660;DHT22;22654;51.054;3.654;2023-06-14T12:30:32;30.40;65.80
36660;DHT22;22654;51.054;3.654;2023-06-14T12:32:58;30.60;68.00
36660;DHT22;22654;51.054;3.654;2023-06-14T12:35:24;30.60;67.80
36660;DHT22;22654;51.054;3.654;2023-06-14T12:37:50;30.70;67.40
36660;DHT22;22654;51.054;3.654;2023-06-14T12:40:15;30.50;68.70
36660;DHT22;22654;51.054;3.654;2023-06-14T12:42:42;30.40;69.20
36660;DHT22;22654;51.054;3.654;2023-06-14T12:45:08;29.80;67.90
36660;DHT22;22654;51.054;3.654;2023-06-14T12:47:34;29.40;69.70
36660;DHT22;22654;51.054;3.654;2023-06-14T12:50:01;29.40;67.80
36660;DHT22;22654;51.054;3.654;2023-06-14T12:52:27;29.50;69.30
36660;DHT22;22654;51.054;3.654;2023-06-14T12:54:53;29.60;69.00
36660;DHT22;22654;51.054;3.654;2023-06-14T12:57:19;29.90;69.70
36660;DHT22;22654;51.054;3.654;2023-06-14T12:59:45;30.40;69.30
36660;DHT22;22654;51.054;3.654;2023-06-14T13:04:37;30.10;68.30
36660;DHT22;22654;51.054;3.654;2023-06-14T13:07:03;30.00;69.10
36660;DHT22;22654;51.054;3.654;2023-06-14T13:09:29;29.80;68.70
36660;DHT22;22654;51.054;3.654;2023-06-14T13:11:55;30.00;69.20
36660;DHT22;22654;51.054;3.654;2023-06-14T13:14:21;29.60;69.30
36660;DHT22;22654;51.054;3.654;2023-06-14T13:16:47;29.50;69.70
36660;DHT22;22654;51.054;3.654;2023-06-14T13:19:12;29.40;68.70
36660;DHT22;22654;51.054;3.654;2023-06-14T13:21:39;29.40;70.10
36660;DHT22;22654;51.054;3.654;2023-06-14T13:24:06;29.40;69.70
36660;DHT22;22654;51.054;3.654;2023-06-14T13:26:33;29.60;68.80
36660;DHT22;22654;51.054;3.654;2023-06-14T13:28:59;29.60;68.40
36660;DHT22;22654;51.054;3.654;2023-06-14T13:31:25;29.50;69.00
36660;DHT22;22654;51.054;3.654;2023-06-14T13:33:51;29.50;67.90
36660;DHT22;22654;51.054;3.654;2023-06-14T13:36:17;29.50;67.40
36660;DHT22;22654;51.054;3.654;2023-06-14T13:38:43;29.60;68.70
36660;DHT22;22654;51.054;3.654;2023-06-14T13:41:09;29.90;69.10
36660;DHT22;22654;51.054;3.654;2023-06-14T13:43:35;30.40;68.40
36660;DHT22;22654;51.054;3.654;2023-06-14T13:46:00;30.30;67.70
36660;DHT22;22654;51.054;3.654;2023-06-14T13:48:26;30.20;67.10
36660;DHT22;22654;51.054;3.654;2023-06-14T13:50:52;30.20;67.60
36660;DHT22;22654;51.054;3.654;2023-06-14T13:53:18;30.40;68.00
36660;DHT22;22654;51.054;3.654;2023-06-14T13:55:44;30.40;67.00
36660;DHT22;22654;51.054;3.654;2023-06-14T13:58:10;29.90;68.30
36660;DHT22;22654;51.054;3.654;2023-06-14T14:00:36;29.80;68.70
36660;DHT22;22654;51.054;3.654;2023-06-14T14:03:06;29.80;68.10
36660;DHT22;22654;51.054;3.654;2023-06-14T14:05:32;29.90;67.70
36660;DHT22;22654;51.054;3.654;2023-06-14T14:07:58;29.80;67.50
36660;DHT22;22654;51.054;3.654;2023-06-14T14:10:24;29.80;69.00
36660;DHT22;22654;51.054;3.654;2023-06-14T14:12:51;29.70;69.60
36660;DHT22;22654;51.054;3.654;2023-06-14T14:15:18;29.80;68.70
36660;DHT22;22654;51.054;3.654;2023-06-14T14:17:44;30.00;68.90
36660;DHT22;22654;51.054;3.654;2023-06-14T14:20:13;29.90;68.90
36660;DHT22;22654;51.054;3.654;2023-06-14T14:22:44;29.70;68.00
36660;DHT22;22654;51.054;3.654;2023-06-14T14:25:10;29.30;67.80
36660;DHT22;22654;51.054;3.654;2023-06-14T14:27:36;29.30;68.60
36660;DHT22;22654;51.054;3.654;2023-06-14T14:30:05;29.40;68.40
36660;DHT22;22654;51.054;3.654;2023-06-14T14:32:31;29.50;68.70
36660;DHT22;22654;51.054;3.654;2023-06-14T14:34:57;29.60;69.00
36660;DHT22;22654;51.054;3.654;2023-06-14T14:37:23;29.80;68.50
36660;DHT22;22654;51.054;3.654;2023-06-14T14:39:49;30.10;68.70
36660;DHT22;22654;51.054;3.654;2023-06-14T14:42:15;29.90;68.80
36660;DHT22;22654;51.054;3.654;2023-06-14T14:44:41;29.50;69.50
36660;DHT22;22654;51.054;3.654;2023-06-14T14:47:07;29.40;71.00
36660;DHT22;22654;51.054;3.654;2023-06-14T14:49:32;29.40;69.80
36660;DHT22;22654;51.054;3.654;2023-06-14T14:51:58;29.50;69.30
36660;DHT22;22654;51.054;3.654;2023-06-14T14:54:24;29.60;68.70
36660;DHT22;22654;51.054;3.654;2023-06-14T14:56:51;29.60;69.20
36660;DHT22;22654;51.054;3.654;2023-06-14T14:59:17;29.60;68.50
36660;DHT22;22654;51.054;3.654;2023-06-14T15:01:44;29.60;69.20
36660;DHT22;22654;51.054;3.654;2023-06-14T15:04:11;29.60;67.90
36660;DHT22;22654;51.054;3.654;2023-06-14T15:06:37;29.60;68.50
36660;DHT22;22654;51.054;3.654;2023-06-14T15:09:05;29.30;67.60
36660;DHT22;22654;51.054;3.654;2023-06-14T15:11:31;29.40;68.20
36660;DHT22;22654;51.054;3.654;2023-06-14T15:13:57;29.50;68.00
36660;DHT22;22654;51.054;3.654;2023-06-14T15:16:23;29.70;68.10
36660;DHT22;22654;51.054;3.654;2023-06-14T15:18:49;29.70;66.90
36660;DHT22;22654;51.054;3.654;2023-06-14T15:21:15;29.60;66.70
36660;DHT22;22654;51.054;3.654;2023-06-14T15:23:41;30.20;67.20
36660;DHT22;22654;51.054;3.654;2023-06-14T15:26:07;30.80;65.50
36660;DHT22;22654;51.054;3.654;2023-06-14T15:28:33;31.10;66.10
36660;DHT22;22654;51.054;3.654;2023-06-14T15:30:59;30.20;65.90
36660;DHT22;22654;51.054;3.654;2023-06-14T15:33:26;30.00;68.70
36660;DHT22;22654;51.054;3.654;2023-06-14T15:35:51;30.10;65.70
36660;DHT22;22654;51.054;3.654;2023-06-14T15:38:18;30.00;65.60
36660;DHT22;22654;51.054;3.654;2023-06-14T15:40:44;29.70;66.40
36660;DHT22;22654;51.054;3.654;2023-06-14T15:43:11;30.00;66.20
36660;DHT22;22654;51.054;3.654;2023-06-14T15:45:37;29.90;66.70
36660;DHT22;22654;51.054;3.654;2023-06-14T15:48:03;30.10;67.10
36660;DHT22;22654;51.054;3.654;2023-06-14T15:50:29;29.80;68.10
36660;DHT22;22654;51.054;3.654;2023-06-14T15:52:55;29.60;68.20